Flight Track Log - Related Links

Times and Time Zones

All times are in EDT time to prevent confusion due to time zone crossing. See the CPT7773 flight status page for this flight to view local times or setup timezone preferences in your user account.

Time Position Orientation Groundspeed Altitude Reporting Facility
EDT Latitude Longitude Course Direction KTS MPH feet Rate Location/Type
Mon 08:03:00 PM 44.4009 -108.7619 120° Southeast  Level FlightAware Approximate
Mon 08:04:00 PM 44.3791 -108.7094 120° Southeast  Level FlightAware Approximate
Mon 08:05:00 PM 44.3573 -108.6570 120° Southeast  Level FlightAware Approximate
Mon 08:06:00 PM 44.3355 -108.6046 120° Southeast  Level FlightAware Approximate
Mon 08:07:00 PM 44.3137 -108.5522 120° Southeast  Level FlightAware Approximate
Mon 08:08:00 PM 44.2918 -108.4998 120° Southeast  Level FlightAware Approximate
Mon 08:09:00 PM 44.2699 -108.4475 120° Southeast  Level FlightAware Approximate
Mon 08:10:00 PM 44.2473 -108.3960 133° Southeast  Level FlightAware Approximate
Mon 08:11:00 PM 44.2178 -108.3516 133° Southeast  Level FlightAware Approximate
Mon 08:12:00 PM 44.1883 -108.3073 133° Southeast  Level FlightAware Approximate
Mon 08:13:00 PM 44.1588 -108.2630 133° Southeast  Level FlightAware Approximate
Mon 08:14:00 PM 44.1292 -108.2188 133° Southeast  Level FlightAware Approximate
Mon 08:15:00 PM 44.0997 -108.1745 133° Southeast  Level FlightAware Approximate
Mon 08:16:00 PM 44.0703 -108.1302 133° Southeast  Level FlightAware Approximate
Mon 08:17:00 PM 44.0408 -108.0859 133° Southeast  Level FlightAware Approximate
Mon 08:18:00 PM 44.0113 -108.0417 133° Southeast  Level FlightAware Approximate
Mon 08:19:00 PM 43.9818 -107.9975 133° Southeast  Level FlightAware Approximate
Mon 08:20:00 PM 43.9523 -107.9534 133° Southeast  Level FlightAware Approximate
Mon 08:21:00 PM 43.9300 -107.9018 120° Southeast  Level FlightAware Approximate
Mon 08:22:00 PM 43.9083 -107.8497 120° Southeast  Level FlightAware Approximate
Mon 08:23:00 PM 43.8865 -107.7976 120° Southeast  Level FlightAware Approximate
Mon 08:24:00 PM 43.8644 -107.7459 128° Southeast  Level FlightAware Approximate
Mon 08:25:00 PM 43.8377 -107.6985 128° Southeast  Level FlightAware Approximate
Mon 08:26:00 PM 43.8110 -107.6511 128° Southeast  Level FlightAware Approximate
Mon 08:27:00 PM 43.7843 -107.6037 128° Southeast  Level FlightAware Approximate
Mon 08:28:00 PM 43.7576 -107.5564 128° Southeast  Level FlightAware Approximate
Mon 08:29:00 PM 43.7309 -107.5091 128° Southeast  Level FlightAware Approximate
Mon 08:30:00 PM 43.7041 -107.4619 128° Southeast  Level FlightAware Approximate
Mon 08:30:53 PM 43.7850 -107.5997 124° Southeast 160 184 11,000  Level Denver Center
Mon 08:31:00 PM 43.6773 -107.4147 128° Southeast  Level FlightAware Approximate
Mon 08:32:00 PM 43.7500 -107.5534 136° Southeast  Level Estimated
Mon 08:32:00 PM 43.6505 -107.3676 128° Southeast  Level FlightAware Approximate
Mon 08:33:00 PM 43.6259 -107.3183 125° Southeast  Level FlightAware Approximate
Mon 08:34:00 PM 43.6012 -107.2690 125° Southeast  Level FlightAware Approximate
Mon 08:35:00 PM 43.5766 -107.2197 124° Southeast  Level FlightAware Approximate
Mon 08:36:00 PM 43.5521 -107.1703 124° Southeast  Level FlightAware Approximate
Mon 08:39:00 PM 43.5298 -107.2645 136° Southeast  Level Estimated
Mon 08:39:06 PM 43.4725 -106.9989 137° Southeast 156 180 11,000  Level Salt Lake Center
Mon 08:40:00 PM 43.4983 -107.2234 137° Southeast  Level Estimated
Mon 08:40:07 PM 43.4497 -106.9503 123° Southeast 154 177 11,100  Level Denver Center
Mon 08:41:00 PM 43.4668 -107.1823 137° Southeast  Level Estimated
Mon 08:41:09 PM 43.4197 -106.8956 127° Southeast 157 181 11,100  Level Denver Center
Mon 08:42:00 PM 43.4353 -107.1413 137° Southeast  Level Estimated
Mon 08:42:10 PM 43.3931 -106.8464 127° Southeast 162 186 11,000  Level Denver Center
Mon 08:43:00 PM 43.4037 -107.1003 137° Southeast  Level Estimated
Mon 08:43:12 PM 43.3717 -106.8086 128° Southeast 161 185 11,100  Level Denver Center
Mon 08:44:00 PM 43.3722 -107.0594 137° Southeast  Level Estimated
Mon 08:44:14 PM 43.3411 -106.7525 127° Southeast 149 171 10,900  Level Denver Center
Mon 08:45:15 PM 43.2994 -106.7303 159° South 151 174 10,200 -683 Descending Denver Center
Mon 08:46:17 PM 43.2508 -106.6992 155° Southeast 164 189 9,500 -732 Descending Denver Center
Mon 08:47:18 PM 43.2111 -106.6689 151° Southeast 169 194 8,700 -585 Descending Denver Center
Mon 08:48:20 PM 43.1650 -106.6358 152° Southeast 169 194 8,300 -290 Descending Denver Center
Mon 08:49:22 PM 43.1264 -106.6097 154° Southeast 166 191 8,100 -146 Descending Denver Center
Mon 08:50:23 PM 43.0881 -106.5889 158° South 160 184 8,000 -293 Descending Denver Center
Mon 08:51:25 PM 43.0436 -106.5497 147° Southeast 165 190 7,500 -488 Descending Denver Center
Mon 08:52:26 PM 43.0078 -106.5122 143° Southeast 169 194 7,000 -293 Descending Denver Center
Mon 08:53:28 PM 42.9731 -106.4769 143° Southeast 169 194 6,900 -97 Descending Denver Center
Mon 08:55:00 PM 42.9114 -106.4542 165° South  Level FlightAware Approximate
Mon 09:02:00 PM 42.9000 -106.4500 155° Southeast  Level FlightAware Approximate
Mon 09:03:00 PM 42.9080 -106.4644 155° Southeast  Level Estimated
Mon 09:04:00 PM 42.9080 -106.4644 155° Southeast  Level Estimated

Login

Don't have an account? Register now (free) for customized features, flight alerts, and more!